createdAt,value
2019-04-19T00:01:55.779Z,13.38
2019-04-19T00:04:19.680Z,13.36
2019-04-19T00:06:46.768Z,13.33
2019-04-19T00:09:26.291Z,13.55
2019-04-19T00:11:45.728Z,13.74
2019-04-19T00:14:06.511Z,13.74
2019-04-19T00:16:32.367Z,13.77
2019-04-19T00:19:20.078Z,13.79
2019-04-19T00:21:54.430Z,13.73
2019-04-19T00:23:54.531Z,13.67
2019-04-19T00:26:19.362Z,13.81
2019-04-19T00:28:52.814Z,13.63
2019-04-19T00:31:26.345Z,13.54
2019-04-19T00:33:43.406Z,13.44
2019-04-19T00:36:07.785Z,13.43
2019-04-19T00:38:43.050Z,13.34
2019-04-19T00:41:26.906Z,13.17
2019-04-19T00:44:02.167Z,13.01
2019-04-19T00:46:30.343Z,13.00
2019-04-19T00:49:01.110Z,12.76
2019-04-19T00:51:18.645Z,12.54
2019-04-19T00:53:43.442Z,12.50
2019-04-19T00:56:12.449Z,12.59
2019-04-19T00:58:32.940Z,12.65
2019-04-19T01:01:04.669Z,12.75
2019-04-19T01:03:30.552Z,12.94
2019-04-19T01:05:57.000Z,12.99
2019-04-19T01:08:21.285Z,13.01
2019-04-19T01:10:55.185Z,13.06
2019-04-19T01:13:17.910Z,13.20
2019-04-19T01:15:51.089Z,13.15
2019-04-19T01:18:15.310Z,13.08
2019-04-19T01:20:31.137Z,13.06
2019-04-19T01:23:03.823Z,13.12
2019-04-19T01:25:27.157Z,12.99
2019-04-19T01:27:50.916Z,12.96
2019-04-19T01:30:24.026Z,12.84
2019-04-19T01:32:51.364Z,12.79
2019-04-19T01:35:15.379Z,12.70
2019-04-19T01:37:37.526Z,12.55
2019-04-19T01:40:21.532Z,12.01
2019-04-19T01:42:50.931Z,11.53
2019-04-19T01:45:40.424Z,11.49
2019-04-19T01:48:28.442Z,11.40
2019-04-19T01:51:12.447Z,11.41
2019-04-19T01:53:39.026Z,11.67
2019-04-19T01:55:53.859Z,11.94
2019-04-19T01:58:18.028Z,12.07
2019-04-19T02:00:49.413Z,11.98
2019-04-19T02:03:09.800Z,11.77
2019-04-19T02:05:42.330Z,11.62
2019-04-19T02:08:07.121Z,11.42
2019-04-19T02:10:53.100Z,11.12
2019-04-19T02:13:17.106Z,11.16
2019-04-19T02:15:41.592Z,11.39
2019-04-19T02:18:01.210Z,11.32
2019-04-19T02:20:35.361Z,11.37
2019-04-19T02:23:01.587Z,11.42
2019-04-19T02:25:25.292Z,11.51
2019-04-19T02:27:51.410Z,11.38
2019-04-19T02:30:29.223Z,11.53
2019-04-19T02:33:11.900Z,11.54
2019-04-19T02:35:36.661Z,11.69
2019-04-19T02:40:45.223Z,12.04
2019-04-19T02:43:20.487Z,11.89
2019-04-19T02:48:00.888Z,11.83
2019-04-19T02:50:43.066Z,11.77
2019-04-19T02:52:47.314Z,11.81
2019-04-19T02:58:00.772Z,11.67
2019-04-19T03:03:09.281Z,11.42
2019-04-19T03:05:30.076Z,11.36
2019-04-19T03:07:32.183Z,11.37
2019-04-19T03:09:58.063Z,11.44
2019-04-19T03:12:47.200Z,11.26
2019-04-19T03:15:07.034Z,11.23
2019-04-19T03:17:35.042Z,11.22
2019-04-19T03:20:00.916Z,11.40
2019-04-19T03:22:46.629Z,11.40
2019-04-19T03:24:56.009Z,11.39
2019-04-19T03:27:14.811Z,11.32
2019-04-19T03:29:38.862Z,11.26
2019-04-19T03:37:06.345Z,11.24
2019-04-19T03:39:39.715Z,11.20
2019-04-19T03:42:29.676Z,11.13
2019-04-19T03:44:35.871Z,11.02
2019-04-19T03:49:45.057Z,10.89
2019-04-19T03:52:15.588Z,10.78
2019-04-19T03:54:23.637Z,10.80
2019-04-19T03:56:53.185Z,10.95
2019-04-19T03:59:02.734Z,10.96
2019-04-19T04:01:34.781Z,10.87
2019-04-19T04:04:03.067Z,10.91
2019-04-19T04:06:29.729Z,10.88
2019-04-19T04:08:58.235Z,10.97
2019-04-19T04:11:29.526Z,10.98
2019-04-19T04:14:12.540Z,10.91
2019-04-19T04:16:47.126Z,11.05
2019-04-19T04:19:10.313Z,11.08
2019-04-19T04:21:42.996Z,11.10
2019-04-19T04:24:13.058Z,11.10
2019-04-19T04:26:39.096Z,11.16
2019-04-19T04:29:07.710Z,11.11
2019-04-19T04:31:34.281Z,11.09
2019-04-19T04:34:03.016Z,11.05
2019-04-19T04:36:36.500Z,11.09
2019-04-19T04:38:46.216Z,11.19
2019-04-19T04:41:14.208Z,11.28
2019-04-19T04:43:48.509Z,11.37
2019-04-19T04:46:33.755Z,11.42
2019-04-19T04:48:58.285Z,11.26
2019-04-19T04:51:29.812Z,11.25
2019-04-19T04:53:45.210Z,11.36
2019-04-19T04:56:15.624Z,11.43
2019-04-19T04:58:45.810Z,11.56
2019-04-19T05:01:13.777Z,11.64
2019-04-19T05:03:54.385Z,11.59
2019-04-19T05:06:21.621Z,11.64
2019-04-19T05:08:45.128Z,11.55
2019-04-19T05:11:16.246Z,11.63
2019-04-19T05:13:48.334Z,11.66
2019-04-19T05:16:18.307Z,11.67
2019-04-19T05:18:36.065Z,11.74
2019-04-19T05:20:55.521Z,11.73
2019-04-19T05:23:28.589Z,11.96
2019-04-19T05:26:21.359Z,12.03
2019-04-19T05:28:21.873Z,11.98
2019-04-19T05:30:41.825Z,11.98
2019-04-19T05:33:09.904Z,11.98
2019-04-19T05:35:47.676Z,12.04
2019-04-19T05:38:17.590Z,12.03
2019-04-19T05:40:46.448Z,12.11
2019-04-19T05:43:37.174Z,12.21
2019-04-19T05:45:58.487Z,12.42
2019-04-19T05:48:08.153Z,12.47
2019-04-19T05:50:39.404Z,12.62
2019-04-19T05:53:06.880Z,12.65
2019-04-19T05:55:19.126Z,12.74
2019-04-19T05:57:56.622Z,13.02
2019-04-19T06:00:25.828Z,13.12
2019-04-19T06:02:53.367Z,13.26
2019-04-19T06:05:32.062Z,13.38
2019-04-19T06:07:45.721Z,13.54
2019-04-19T06:09:58.156Z,13.80
2019-04-19T06:12:28.720Z,13.84
2019-04-19T06:15:15.332Z,14.02
2019-04-19T06:17:50.969Z,14.22
2019-04-19T06:20:15.992Z,14.25
2019-04-19T06:22:50.014Z,14.36
2019-04-19T06:25:14.424Z,14.17
2019-04-19T06:28:00.777Z,14.16
2019-04-19T06:30:13.373Z,14.23
2019-04-19T06:32:33.720Z,14.41
2019-04-19T06:34:53.959Z,14.39
2019-04-19T06:37:14.441Z,14.60
2019-04-19T06:39:35.065Z,14.40
2019-04-19T06:42:05.877Z,14.65
2019-04-19T06:44:51.820Z,14.54
2019-04-19T06:47:08.371Z,14.84
2019-04-19T06:49:25.142Z,14.89
2019-04-19T06:51:57.477Z,14.90
2019-04-19T06:54:19.283Z,14.80
2019-04-19T06:56:46.735Z,14.97
2019-04-19T06:59:18.133Z,15.03
2019-04-19T07:01:42.197Z,14.88
2019-04-19T07:04:02.105Z,15.08
2019-04-19T07:06:44.319Z,15.00
2019-04-19T07:09:21.517Z,15.05
2019-04-19T07:11:46.559Z,15.27
2019-04-19T07:14:00.982Z,15.29
2019-04-19T07:16:35.017Z,15.50
2019-04-19T07:18:52.077Z,15.52
2019-04-19T07:21:29.016Z,15.69
2019-04-19T07:23:54.703Z,15.65
2019-04-19T07:26:20.382Z,15.66
2019-04-19T07:28:33.632Z,15.94
2019-04-19T07:31:01.108Z,16.02
2019-04-19T07:33:31.641Z,15.93
2019-04-19T07:36:22.369Z,15.98
2019-04-19T07:38:53.378Z,16.27
2019-04-19T07:41:02.948Z,16.10
2019-04-19T07:46:03.002Z,16.27
2019-04-19T07:48:18.466Z,16.58
2019-04-19T07:50:50.012Z,16.39
2019-04-19T07:53:08.308Z,16.72
2019-04-19T07:55:43.271Z,16.84
2019-04-19T07:58:30.113Z,16.88
2019-04-19T08:00:52.374Z,17.02
2019-04-19T08:03:25.965Z,16.73
2019-04-19T08:05:52.923Z,16.96
2019-04-19T08:11:01.557Z,16.99
2019-04-19T08:13:16.836Z,17.03
2019-04-19T08:15:40.792Z,17.34
2019-04-19T08:27:33.250Z,17.58
2019-04-19T08:29:59.182Z,17.73
2019-04-19T08:32:17.440Z,17.56
2019-04-19T08:34:52.035Z,17.69
2019-04-19T08:37:19.771Z,17.97
2019-04-19T08:39:49.938Z,17.97
2019-04-19T08:42:21.205Z,18.16
2019-04-19T08:44:43.006Z,18.14
2019-04-19T08:47:28.727Z,18.18
2019-04-19T08:49:51.971Z,18.39
2019-04-19T08:52:25.669Z,18.24
2019-04-19T08:55:09.397Z,18.32
2019-04-19T08:57:18.826Z,18.45
2019-04-19T09:00:03.456Z,18.60
2019-04-19T09:02:24.821Z,18.62
2019-04-19T09:04:50.720Z,18.63
2019-04-19T09:09:59.976Z,19.02
2019-04-19T09:12:12.082Z,18.88
2019-04-19T09:14:39.786Z,19.11
2019-04-19T09:17:13.079Z,19.59
2019-04-19T09:19:55.018Z,19.90
2019-04-19T09:21:55.900Z,19.92
2019-04-19T09:24:15.660Z,19.79
2019-04-19T09:26:56.321Z,19.51
2019-04-19T09:29:31.061Z,19.91
2019-04-19T09:31:43.954Z,20.16
2019-04-19T09:34:05.763Z,20.33
2019-04-19T09:36:33.401Z,20.00
2019-04-19T09:39:08.446Z,19.95
2019-04-19T09:41:24.719Z,19.81
2019-04-19T09:43:54.507Z,20.19
2019-04-19T09:46:10.572Z,20.41
2019-04-19T09:48:55.370Z,20.32
2019-04-19T09:51:24.354Z,20.31
2019-04-19T09:53:55.762Z,20.74
2019-04-19T09:56:17.399Z,20.46
2019-04-19T09:58:38.541Z,20.59
2019-04-19T10:01:04.100Z,20.82
2019-04-19T10:03:38.163Z,20.74
2019-04-19T10:05:58.380Z,21.09
2019-04-19T10:08:24.066Z,21.30
2019-04-19T10:10:51.690Z,21.62
2019-04-19T10:13:17.549Z,21.46
2019-04-19T10:15:54.406Z,21.60
2019-04-19T10:18:20.846Z,21.46
2019-04-19T10:20:55.106Z,21.77
2019-04-19T10:23:23.008Z,22.03
2019-04-19T10:25:54.944Z,22.21
2019-04-19T10:28:16.065Z,22.03
2019-04-19T10:30:50.755Z,21.54
2019-04-19T10:33:28.155Z,21.57
2019-04-19T10:35:45.449Z,21.83
2019-04-19T10:38:11.673Z,21.66
2019-04-19T10:40:37.703Z,21.76
2019-04-19T10:43:05.179Z,22.07
2019-04-19T10:45:32.036Z,21.84
2019-04-19T10:47:57.934Z,21.74
2019-04-19T10:50:39.567Z,22.22
2019-04-19T10:52:58.531Z,21.81
2019-04-19T10:55:28.517Z,21.59
2019-04-19T10:57:55.126Z,22.07
2019-04-19T11:00:21.861Z,22.03
2019-04-19T11:02:49.590Z,21.84
2019-04-19T11:05:16.466Z,22.21
2019-04-19T11:07:43.591Z,22.40
2019-04-19T11:10:09.720Z,22.37
2019-04-19T11:12:36.487Z,22.16
2019-04-19T11:15:02.587Z,22.45
2019-04-19T11:17:29.705Z,22.38
2019-04-19T11:20:13.942Z,22.36
2019-04-19T11:22:23.729Z,22.47
2019-04-19T11:24:50.038Z,22.30
2019-04-19T11:27:17.063Z,22.49
2019-04-19T11:29:42.821Z,22.27
2019-04-19T11:32:15.824Z,22.47
2019-04-19T11:34:45.119Z,22.45
2019-04-19T11:37:13.503Z,23.08
2019-04-19T11:39:39.092Z,23.21
2019-04-19T11:42:05.308Z,23.09
2019-04-19T11:44:32.651Z,22.82
2019-04-19T11:46:58.327Z,23.12
2019-04-19T11:49:33.221Z,23.30
2019-04-19T11:51:51.698Z,22.81
2019-04-19T11:54:18.727Z,22.91
2019-04-19T11:56:57.319Z,23.01
2019-04-19T11:59:34.278Z,23.04
2019-04-19T12:01:52.150Z,23.01
2019-04-19T12:04:18.465Z,23.15
2019-04-19T12:06:45.046Z,23.49
2019-04-19T12:09:12.426Z,23.40
2019-04-19T12:11:38.574Z,23.49
2019-04-19T12:14:05.917Z,23.55
2019-04-19T12:16:32.890Z,23.80
2019-04-19T12:19:00.050Z,23.73
2019-04-19T12:21:25.502Z,23.68
2019-04-19T12:23:52.945Z,23.97
2019-04-19T12:26:19.870Z,24.06
2019-04-19T12:28:45.902Z,23.87
2019-04-19T12:31:13.622Z,23.88
2019-04-19T12:33:39.571Z,24.31
2019-04-19T12:36:05.930Z,24.40
2019-04-19T12:38:33.343Z,24.30
2019-04-19T12:40:59.503Z,24.51
2019-04-19T12:43:26.276Z,24.56
2019-04-19T12:45:54.200Z,24.47
2019-04-19T12:48:19.752Z,24.39
2019-04-19T12:50:47.352Z,24.36
2019-04-19T12:53:13.204Z,24.35
2019-04-19T12:55:40.003Z,24.72
2019-04-19T12:58:07.996Z,24.55
2019-04-19T13:00:41.724Z,24.26
2019-04-19T13:03:12.053Z,24.54
2019-04-19T13:05:43.518Z,24.73
2019-04-19T13:08:09.488Z,24.83
2019-04-19T13:10:35.615Z,25.15
2019-04-19T13:13:03.618Z,24.87
2019-04-19T13:15:29.494Z,24.45
2019-04-19T13:17:56.042Z,24.39
2019-04-19T13:20:27.521Z,24.59
2019-04-19T13:22:50.452Z,24.27
2019-04-19T13:25:17.291Z,24.24
2019-04-19T13:27:49.980Z,24.12
2019-04-19T13:30:20.451Z,24.25
2019-04-19T13:32:36.254Z,24.66
2019-04-19T13:35:03.485Z,24.65
2019-04-19T13:37:41.046Z,24.69
2019-04-19T13:40:12.228Z,24.97
2019-04-19T13:42:39.051Z,24.70
2019-04-19T13:45:13.960Z,25.01
2019-04-19T13:47:31.607Z,24.64
2019-04-19T13:49:58.403Z,24.51
2019-04-19T13:52:32.487Z,24.79
2019-04-19T13:54:58.849Z,24.70
2019-04-19T13:57:25.839Z,25.05
2019-04-19T13:59:58.425Z,24.63
2019-04-19T14:02:20.515Z,24.82
2019-04-19T14:04:45.454Z,25.15
2019-04-19T14:07:12.632Z,25.25
2019-04-19T14:09:39.289Z,25.11
2019-04-19T14:12:07.058Z,25.10
2019-04-19T14:14:32.936Z,24.68
2019-04-19T14:16:59.887Z,24.82
2019-04-19T14:19:26.960Z,24.64
2019-04-19T14:21:55.038Z,24.77
2019-04-19T14:24:21.735Z,24.62
2019-04-19T14:26:52.121Z,24.79
2019-04-19T14:29:15.362Z,25.04
2019-04-19T14:31:42.256Z,25.22
2019-04-19T14:34:09.107Z,25.06
2019-04-19T14:36:36.179Z,24.84
2019-04-19T14:39:04.444Z,24.94
2019-04-19T14:41:30.033Z,24.95
2019-04-19T14:43:57.503Z,25.06
2019-04-19T14:46:24.797Z,25.15
2019-04-19T14:48:50.997Z,25.62
2019-04-19T14:51:24.617Z,25.46
2019-04-19T14:53:45.005Z,25.24
2019-04-19T14:56:11.438Z,24.96
2019-04-19T14:58:37.623Z,25.12
2019-04-19T15:01:15.137Z,25.35
2019-04-19T15:03:43.122Z,25.30
2019-04-19T15:06:10.110Z,25.24
2019-04-19T15:08:37.323Z,25.13
2019-04-19T15:11:03.254Z,25.25
2019-04-19T15:13:30.650Z,25.63
2019-04-19T15:15:56.466Z,25.45
2019-04-19T15:18:23.358Z,24.95
2019-04-19T15:20:58.156Z,24.80
2019-04-19T15:23:18.297Z,25.03
2019-04-19T15:25:44.607Z,25.13
2019-04-19T15:28:11.064Z,25.11
2019-04-19T15:30:37.551Z,25.13
2019-04-19T15:33:04.557Z,25.21
2019-04-19T15:35:31.876Z,24.90
2019-04-19T15:37:58.490Z,25.30
2019-04-19T15:40:25.816Z,24.92
2019-04-19T15:42:52.775Z,24.96
2019-04-19T15:45:20.882Z,25.41
2019-04-19T15:47:48.559Z,25.16
2019-04-19T15:50:14.070Z,25.24
2019-04-19T15:52:42.021Z,25.35
2019-04-19T15:55:08.172Z,25.33
2019-04-19T15:57:34.785Z,24.92
2019-04-19T16:00:02.451Z,24.91
2019-04-19T16:02:44.266Z,24.73
2019-04-19T16:05:30.185Z,24.72
2019-04-19T16:08:04.846Z,24.88
2019-04-19T16:10:42.515Z,24.90
2019-04-19T16:13:07.982Z,24.82
2019-04-19T16:15:36.066Z,24.78
2019-04-19T16:18:02.103Z,24.65
2019-04-19T16:20:29.359Z,24.71
2019-04-19T16:22:56.258Z,24.72
2019-04-19T16:25:23.277Z,24.56
2019-04-19T16:27:50.104Z,24.48
2019-04-19T16:30:16.857Z,24.90
2019-04-19T16:32:43.960Z,24.57
2019-04-19T16:35:12.015Z,24.44
2019-04-19T16:37:37.607Z,24.31
2019-04-19T16:40:04.838Z,24.31
2019-04-19T16:42:31.555Z,24.20
2019-04-19T16:44:59.576Z,24.12
2019-04-19T16:47:25.041Z,24.06
2019-04-19T16:49:52.178Z,24.19
2019-04-19T16:52:18.636Z,24.10
2019-04-19T16:54:46.265Z,24.11
2019-04-19T16:57:20.392Z,24.12
2019-04-19T16:59:39.724Z,23.98
2019-04-19T17:02:06.523Z,23.80
2019-04-19T17:04:32.496Z,23.77
2019-04-19T17:06:58.902Z,23.62
2019-04-19T17:09:26.780Z,23.58
2019-04-19T17:11:53.581Z,23.48
2019-04-19T17:14:21.000Z,23.34
2019-04-19T17:17:00.346Z,23.37
2019-04-19T17:19:34.883Z,23.22
2019-04-19T17:22:08.992Z,23.13
2019-04-19T17:24:27.237Z,23.06
2019-04-19T17:26:55.262Z,22.89
2019-04-19T17:29:20.911Z,22.84
2019-04-19T17:31:47.968Z,22.60
2019-04-19T17:34:14.582Z,22.70
2019-04-19T17:36:42.181Z,22.54
2019-04-19T17:39:08.780Z,22.69
2019-04-19T17:41:36.474Z,22.50
2019-04-19T17:44:03.633Z,22.30
2019-04-19T17:46:29.095Z,22.19
2019-04-19T17:48:56.891Z,22.03
2019-04-19T17:51:24.769Z,21.93
2019-04-19T17:53:52.041Z,21.82
2019-04-19T17:56:17.360Z,21.81
2019-04-19T17:58:44.360Z,21.58
2019-04-19T18:01:10.402Z,21.45
2019-04-19T18:03:37.450Z,21.31
2019-04-19T18:06:04.028Z,21.19
2019-04-19T18:08:32.829Z,21.11
2019-04-19T18:10:59.082Z,21.00
2019-04-19T18:13:25.370Z,20.83
2019-04-19T18:15:51.225Z,20.65
2019-04-19T18:18:17.958Z,20.57
2019-04-19T18:20:50.014Z,20.44
2019-04-19T18:23:24.114Z,20.35
2019-04-19T18:25:41.415Z,20.27
2019-04-19T18:28:08.719Z,20.30
2019-04-19T18:30:33.685Z,20.13
2019-04-19T18:33:04.654Z,20.08
2019-04-19T18:35:33.763Z,20.14
2019-04-19T18:37:59.018Z,20.02
2019-04-19T18:40:25.260Z,19.92
2019-04-19T18:43:09.755Z,19.87
2019-04-19T18:45:24.756Z,19.77
2019-04-19T18:47:47.198Z,19.75
2019-04-19T18:50:12.787Z,19.74
2019-04-19T18:52:50.670Z,19.81
2019-04-19T18:55:10.635Z,19.67
2019-04-19T18:57:38.316Z,19.89
2019-04-19T19:00:02.005Z,19.41
2019-04-19T19:02:28.505Z,19.35
2019-04-19T19:05:00.280Z,19.22
2019-04-19T19:07:23.729Z,19.27
2019-04-19T19:09:50.040Z,19.23
2019-04-19T19:12:15.580Z,19.19
2019-04-19T19:14:43.634Z,19.11
2019-04-19T19:17:13.633Z,19.33
2019-04-19T19:19:36.555Z,18.89
2019-04-19T19:22:02.149Z,18.72
2019-04-19T19:24:49.327Z,18.65
2019-04-19T19:27:05.391Z,18.54
2019-04-19T19:29:22.434Z,18.44
2019-04-19T19:31:47.873Z,18.59
2019-04-19T19:34:20.568Z,18.48
2019-04-19T19:36:46.591Z,18.35
2019-04-19T19:39:17.556Z,18.06
2019-04-19T19:42:27.304Z,17.87
2019-04-19T19:44:13.398Z,17.77
2019-04-19T19:47:06.895Z,18.42
2019-04-19T19:51:39.489Z,18.37
2019-04-19T19:54:38.936Z,18.34
2019-04-19T19:56:43.182Z,18.35
2019-04-19T19:59:02.509Z,17.69
2019-04-19T20:01:28.911Z,17.45
2019-04-19T20:03:46.764Z,17.58
2019-04-19T20:06:14.166Z,17.53
2019-04-19T20:08:39.737Z,17.62
2019-04-19T20:11:01.976Z,17.70
2019-04-19T20:13:35.969Z,17.62
2019-04-19T20:15:56.649Z,17.63
2019-04-19T20:18:29.659Z,17.69
2019-04-19T20:20:48.797Z,17.53
2019-04-19T20:23:23.298Z,17.71
2019-04-19T20:25:50.722Z,17.90
2019-04-19T20:28:09.241Z,17.89
2019-04-19T20:30:38.865Z,17.85
2019-04-19T20:33:03.732Z,17.90
2019-04-19T20:35:29.872Z,18.00
2019-04-19T20:38:00.869Z,18.01
2019-04-19T20:40:25.807Z,17.99
2019-04-19T20:43:09.584Z,17.91
2019-04-19T20:45:28.077Z,17.80
2019-04-19T20:47:49.302Z,17.76
2019-04-19T20:50:21.623Z,17.95
2019-04-19T20:52:48.664Z,17.44
2019-04-19T20:55:25.045Z,16.74
2019-04-19T20:57:49.823Z,16.24
2019-04-19T21:00:06.040Z,15.68
2019-04-19T21:02:35.610Z,15.33
2019-04-19T21:05:01.433Z,15.10
2019-04-19T21:07:29.671Z,15.05
2019-04-19T21:09:51.894Z,15.26
2019-04-19T21:12:24.049Z,15.13
2019-04-19T21:14:46.744Z,14.92
2019-04-19T21:17:12.472Z,14.82
2019-04-19T21:19:43.103Z,14.76
2019-04-19T21:22:06.440Z,14.50
2019-04-19T21:24:44.453Z,14.39
2019-04-19T21:27:06.007Z,14.46
2019-04-19T21:29:30.184Z,14.42
2019-04-19T21:31:55.922Z,14.34
2019-04-19T21:34:24.711Z,14.48
2019-04-19T21:36:52.510Z,14.46
2019-04-19T21:39:16.383Z,14.71
2019-04-19T21:41:41.854Z,14.75
2019-04-19T21:44:10.242Z,14.48
2019-04-19T21:46:34.631Z,14.47
2019-04-19T21:49:02.604Z,14.55
2019-04-19T21:51:31.828Z,14.44
2019-04-19T21:53:54.425Z,14.23
2019-04-19T21:56:20.603Z,14.29
2019-04-19T21:58:52.276Z,14.23
2019-04-19T22:01:15.893Z,14.11
2019-04-19T22:03:40.731Z,14.02
2019-04-19T22:06:17.686Z,14.06
2019-04-19T22:08:36.702Z,13.91
2019-04-19T22:11:00.539Z,13.90
2019-04-19T22:13:33.242Z,13.91
2019-04-19T22:15:56.772Z,13.85
2019-04-19T22:18:21.465Z,13.81
2019-04-19T22:20:54.025Z,13.93
2019-04-19T22:23:14.836Z,13.90
2019-04-19T22:25:49.216Z,13.61
2019-04-19T22:28:07.690Z,13.75
2019-04-19T22:30:40.683Z,13.77
2019-04-19T22:33:03.016Z,13.72
2019-04-19T22:35:29.005Z,13.50
2019-04-19T22:37:54.722Z,13.59
2019-04-19T22:40:21.295Z,13.70
2019-04-19T22:42:56.932Z,13.43
2019-04-19T22:45:19.140Z,13.62
2019-04-19T22:47:41.748Z,13.11
2019-04-19T22:50:10.797Z,13.00
2019-04-19T22:52:34.973Z,12.89
2019-04-19T22:55:06.705Z,13.10
2019-04-19T22:57:37.981Z,13.29
2019-04-19T22:59:59.420Z,13.38
2019-04-19T23:02:31.055Z,13.42
2019-04-19T23:04:57.863Z,13.46
2019-04-19T23:07:21.225Z,13.24
2019-04-19T23:09:48.614Z,13.12
2019-04-19T23:12:14.695Z,13.11
2019-04-19T23:14:50.521Z,13.13
2019-04-19T23:17:19.775Z,13.45
2019-04-19T23:19:46.007Z,13.41
2019-04-19T23:22:10.122Z,13.19
2019-04-19T23:24:43.735Z,13.04
2019-04-19T23:27:15.405Z,12.86
2019-04-19T23:29:33.032Z,12.86
2019-04-19T23:31:57.405Z,12.80
2019-04-19T23:34:23.223Z,12.54
2019-04-19T23:36:58.709Z,12.27
2019-04-19T23:39:17.300Z,12.09
2019-04-19T23:41:43.298Z,12.16
2019-04-19T23:44:14.250Z,12.01
2019-04-19T23:46:37.426Z,11.95
2019-04-19T23:49:08.740Z,11.87
2019-04-19T23:51:31.375Z,11.91
2019-04-19T23:53:56.950Z,12.01
2019-04-19T23:56:34.112Z,11.99
2019-04-19T23:58:50.429Z,11.87
